Time;durP1;ratioP1;P1;durP2;ratioP2;P2;SDS_P1;SDS_P2;PMS_P1;PMS_P2;Temp;Humidity;BMP_temperature;BMP_pressure;BME280_temperature;BME280_humidity;BME280_pressure;Samples;Min_cycle;Max_cycle;Signal;HPM_P1;HPM_P2
2021/11/30 00:02:03;;;;;;;66.70;9.67;;;;;;;;;;5073405;28;20554;-96
2021/11/30 00:04:38;;;;;;;63.10;8.90;;;;;;;;;;5064374;28;20459;-96
2021/11/30 00:07:05;;;;;;;62.67;8.50;;;;;;;;;;5065656;28;20452;-96
2021/11/30 00:17:55;;;;;;;63.40;8.80;;;;;;;;;;5031816;28;21380;-96
2021/11/30 00:20:23;;;;;;;63.30;8.90;;;;;;;;;;5018776;28;20448;-96
2021/11/30 00:22:50;;;;;;;63.07;8.60;;;;;;;;;;5020400;28;20592;-96
2021/11/30 00:25:17;;;;;;;63.80;8.90;;;;;;;;;;5020592;28;20459;-96
2021/11/30 00:27:43;;;;;;;62.87;8.60;;;;;;;;;;5017690;28;20446;-96
2021/11/30 00:30:11;;;;;;;65.20;9.17;;;;;;;;;;5022129;28;20448;-96
2021/11/30 00:32:37;;;;;;;63.93;9.43;;;;;;;;;;5024053;28;20487;-96
2021/11/30 00:35:05;;;;;;;64.07;9.07;;;;;;;;;;5028820;28;20465;-96
2021/11/30 00:37:33;;;;;;;63.67;9.07;;;;;;;;;;5025395;28;20465;-96
2021/11/30 00:40:01;;;;;;;63.03;8.93;;;;;;;;;;5026760;28;20472;-96
2021/11/30 00:42:28;;;;;;;63.87;9.23;;;;;;;;;;5024595;28;20527;-96
2021/11/30 00:44:57;;;;;;;64.10;8.60;;;;;;;;;;5021503;28;20444;-95
2021/11/30 00:47:29;;;;;;;64.33;9.57;;;;;;;;;;5058437;28;20476;-95
2021/11/30 00:49:57;;;;;;;63.37;9.03;;;;;;;;;;5061458;28;20485;-96
2021/11/30 00:52:24;;;;;;;63.47;8.90;;;;;;;;;;5063677;28;20484;-96
2021/11/30 00:54:52;;;;;;;64.80;9.40;;;;;;;;;;5063214;28;20448;-96
2021/11/30 00:57:20;;;;;;;63.50;9.00;;;;;;;;;;5066624;28;20441;-96
2021/11/30 00:59:46;;;;;;;63.60;8.93;;;;;;;;;;5063279;28;20451;-96
2021/11/30 01:02:13;;;;;;;65.23;9.60;;;;;;;;;;5059255;28;20469;-95
2021/11/30 01:04:40;;;;;;;65.67;9.30;;;;;;;;;;5064700;28;20527;-96
2021/11/30 01:07:11;;;;;;;63.87;9.33;;;;;;;;;;5066582;28;20512;-96
2021/11/30 01:09:38;;;;;;;63.87;9.47;;;;;;;;;;5068526;28;20542;-96
2021/11/30 01:12:07;;;;;;;64.00;9.17;;;;;;;;;;5069359;28;20468;-96
2021/11/30 01:14:34;;;;;;;63.80;8.73;;;;;;;;;;5098844;23;20496;-96
2021/11/30 01:17:01;;;;;;;64.17;8.30;;;;;;;;;;5102200;28;20462;-96
2021/11/30 01:19:28;;;;;;;63.87;8.80;;;;;;;;;;5108860;28;20459;-96
2021/11/30 01:21:55;;;;;;;62.90;8.80;;;;;;;;;;5106898;28;20479;-96
2021/11/30 01:24:22;;;;;;;63.50;8.77;;;;;;;;;;5112920;28;20539;-96
2021/11/30 01:26:50;;;;;;;63.30;8.40;;;;;;;;;;5114767;28;20446;-96
2021/11/30 01:29:27;;;;;;;64.80;8.63;;;;;;;;;;5112958;28;20492;-95
2021/11/30 01:31:55;;;;;;;63.20;8.90;;;;;;;;;;5105440;28;20463;-96
2021/11/30 01:34:25;;;;;;;63.20;8.73;;;;;;;;;;5109523;28;20466;-96
2021/11/30 01:36:53;;;;;;;62.87;8.70;;;;;;;;;;5107708;28;20441;-96
2021/11/30 01:39:21;;;;;;;63.47;8.77;;;;;;;;;;5107142;28;21563;-96
2021/11/30 01:41:48;;;;;;;62.73;8.50;;;;;;;;;;5106091;28;21201;-96
2021/11/30 01:44:32;;;;;;;63.63;8.60;;;;;;;;;;5108543;28;20456;-96
2021/11/30 01:47:11;;;;;;;62.40;8.37;;;;;;;;;;5109741;28;20437;-96
2021/11/30 01:49:37;;;;;;;63.30;8.33;;;;;;;;;;5095453;28;20452;-95
2021/11/30 01:52:04;;;;;;;62.47;8.10;;;;;;;;;;5107130;28;20440;-96
2021/11/30 01:54:31;;;;;;;63.03;8.63;;;;;;;;;;5106152;28;20226;-96
2021/11/30 01:56:58;;;;;;;63.57;8.60;;;;;;;;;;5105350;28;20432;-96
2021/11/30 01:59:25;;;;;;;62.97;8.67;;;;;;;;;;5104950;28;20452;-96
2021/11/30 02:01:52;;;;;;;63.00;8.03;;;;;;;;;;5099505;28;20474;-96
2021/11/30 02:04:20;;;;;;;63.20;8.80;;;;;;;;;;5099245;28;20468;-96
2021/11/30 02:06:47;;;;;;;65.20;10.00;;;;;;;;;;5099273;28;20448;-96
2021/11/30 02:09:13;;;;;;;68.20;10.30;;;;;;;;;;5099732;28;20512;-96
2021/11/30 02:11:40;;;;;;;65.13;10.00;;;;;;;;;;5100451;28;20437;-96
2021/11/30 02:14:07;;;;;;;65.40;9.33;;;;;;;;;;5102056;28;20483;-96
2021/11/30 02:16:35;;;;;;;66.47;9.73;;;;;;;;;;5112850;28;20435;-96
2021/11/30 02:19:02;;;;;;;65.67;10.20;;;;;;;;;;5093276;28;20460;-96
2021/11/30 02:21:33;;;;;;;65.97;10.43;;;;;;;;;;5112619;28;20444;-95
2021/11/30 02:24:00;;;;;;;67.87;11.10;;;;;;;;;;5111889;28;20452;-96
2021/11/30 02:26:28;;;;;;;65.77;10.37;;;;;;;;;;5111612;28;20586;-96
2021/11/30 02:28:57;;;;;;;65.57;10.70;;;;;;;;;;5115425;28;20440;-96
2021/11/30 02:31:30;;;;;;;66.97;10.20;;;;;;;;;;5117300;28;20455;-96
2021/11/30 02:33:57;;;;;;;64.67;10.03;;;;;;;;;;5117948;28;20486;-96
2021/11/30 02:36:37;;;;;;;65.33;10.37;;;;;;;;;;5123315;28;20508;-96
2021/11/30 02:39:13;;;;;;;67.00;10.03;;;;;;;;;;5125405;28;20432;-96
2021/11/30 02:41:40;;;;;;;66.60;10.47;;;;;;;;;;5126454;28;20436;-96
2021/11/30 02:44:10;;;;;;;64.67;10.13;;;;;;;;;;5117232;28;20440;-96
2021/11/30 02:46:37;;;;;;;63.87;9.30;;;;;;;;;;5117597;28;20458;-95
2021/11/30 02:49:05;;;;;;;63.40;8.80;;;;;;;;;;5115409;28;20437;-95
2021/11/30 02:51:34;;;;;;;63.40;8.80;;;;;;;;;;5116533;28;20484;-96
2021/11/30 02:54:05;;;;;;;64.70;8.97;;;;;;;;;;5115292;28;20494;-94
2021/11/30 02:56:37;;;;;;;62.67;8.23;;;;;;;;;;5114759;28;20578;-95
2021/11/30 02:59:04;;;;;;;63.47;8.73;;;;;;;;;;5116410;28;20450;-93
2021/11/30 03:01:31;;;;;;;63.97;8.83;;;;;;;;;;5114302;28;20979;-96
2021/11/30 03:03:58;;;;;;;62.90;8.50;;;;;;;;;;5113533;28;20452;-95
2021/11/30 03:06:25;;;;;;;64.43;8.60;;;;;;;;;;5115102;28;20915;-96
2021/11/30 03:08:52;;;;;;;62.50;8.20;;;;;;;;;;5115390;28;21247;-96
2021/11/30 03:11:19;;;;;;;65.80;7.23;;;;;;;;;;5117927;28;20546;-94
2021/11/30 03:13:47;;;;;;;62.67;8.20;;;;;;;;;;5113702;28;20495;-93
2021/11/30 03:16:17;;;;;;;62.90;7.80;;;;;;;;;;5115590;28;20433;-95
2021/11/30 03:18:44;;;;;;;62.97;8.53;;;;;;;;;;5116873;28;20468;-96
2021/11/30 03:21:10;;;;;;;62.90;8.40;;;;;;;;;;5122856;28;20500;-93
2021/11/30 03:23:37;;;;;;;66.50;7.87;;;;;;;;;;5122764;28;20444;-96
2021/11/30 03:26:04;;;;;;;63.77;7.40;;;;;;;;;;5116570;28;20435;-95
2021/11/30 03:28:31;;;;;;;62.60;7.80;;;;;;;;;;5116096;28;20444;-94
2021/11/30 03:31:03;;;;;;;63.37;8.03;;;;;;;;;;5117198;28;20447;-95
2021/11/30 03:36:13;;;;;;;62.60;7.47;;;;;;;;;;5119849;28;20434;-94
2021/11/30 03:38:40;;;;;;;62.57;7.80;;;;;;;;;;5119769;28;20457;-96
2021/11/30 03:41:09;;;;;;;62.53;7.83;;;;;;;;;;5123566;28;20453;-96
2021/11/30 03:43:37;;;;;;;62.80;7.30;;;;;;;;;;5122712;28;20470;-95
2021/11/30 03:46:05;;;;;;;62.83;8.25;;;;;;;;;;5116096;28;20695;-96
2021/11/30 03:48:32;;;;;;;63.47;8.30;;;;;;;;;;5112852;28;20723;-93
2021/11/30 03:51:03;;;;;;;63.70;8.10;;;;;;;;;;5118386;28;20430;-95
2021/11/30 03:53:35;;;;;;;63.00;8.10;;;;;;;;;;5117739;28;21207;-94
2021/11/30 03:56:04;;;;;;;62.60;7.78;;;;;;;;;;5117673;28;20212;-94
2021/11/30 03:58:31;;;;;;;64.55;8.07;;;;;;;;;;5115362;28;20224;-95
2021/11/30 04:01:02;;;;;;;62.90;8.45;;;;;;;;;;5119874;28;20194;-95
2021/11/30 04:03:33;;;;;;;62.70;8.07;;;;;;;;;;5115763;28;20220;-96
2021/11/30 04:06:11;;;;;;;62.53;7.90;;;;;;;;;;5116238;28;20437;-96
2021/11/30 04:08:42;;;;;;;62.95;8.25;;;;;;;;;;5116037;28;20190;-96
2021/11/30 04:11:21;;;;;;;62.50;8.17;;;;;;;;;;5119644;28;20211;-96
2021/11/30 04:13:49;;;;;;;64.40;8.30;;;;;;;;;;5119600;28;20486;-95
2021/11/30 04:16:15;;;;;;;63.77;9.20;;;;;;;;;;5116806;28;20467;-96
2021/11/30 04:18:46;;;;;;;63.37;8.40;;;;;;;;;;5115654;28;20565;-96
2021/11/30 04:21:14;;;;;;;63.13;8.50;;;;;;;;;;5112900;28;20423;-96
2021/11/30 04:23:41;;;;;;;64.28;9.25;;;;;;;;;;5116635;28;20444;-94
2021/11/30 04:26:07;;;;;;;63.45;8.82;;;;;;;;;;5119575;28;20236;-94
2021/11/30 04:28:38;;;;;;;63.17;8.77;;;;;;;;;;5121775;28;20262;-96
2021/11/30 04:31:15;;;;;;;63.37;8.63;;;;;;;;;;5119742;28;20208;-96
2021/11/30 04:33:44;;;;;;;63.33;7.95;;;;;;;;;;5115774;28;20558;-96
2021/11/30 04:36:27;;;;;;;62.72;7.97;;;;;;;;;;5116704;28;20276;-95
2021/11/30 04:41:35;;;;;;;62.93;7.90;;;;;;;;;;5115757;28;20195;-96
2021/11/30 04:44:06;;;;;;;62.67;7.87;;;;;;;;;;5115172;28;20458;-96
2021/11/30 04:46:47;;;;;;;63.15;8.20;;;;;;;;;;5116355;28;20434;-93
2021/11/30 04:49:16;;;;;;;64.05;8.52;;;;;;;;;;5113183;28;20245;-95
2021/11/30 04:51:43;;;;;;;64.53;8.57;;;;;;;;;;5116906;28;20241;-96
2021/11/30 04:54:11;;;;;;;63.90;8.87;;;;;;;;;;5116378;28;20323;-94
2021/11/30 04:56:38;;;;;;;63.13;8.55;;;;;;;;;;5096237;28;20436;-95
2021/11/30 04:59:04;;;;;;;63.35;8.30;;;;;;;;;;5114469;28;20209;-96
2021/11/30 05:01:31;;;;;;;62.92;8.35;;;;;;;;;;5112817;28;20196;-96
2021/11/30 05:03:59;;;;;;;63.05;8.43;;;;;;;;;;5112670;28;20226;-96
2021/11/30 05:06:26;;;;;;;63.57;8.37;;;;;;;;;;5114860;28;20201;-96
2021/11/30 05:08:52;;;;;;;63.80;8.50;;;;;;;;;;5087790;22;20488;-94
2021/11/30 05:11:23;;;;;;;64.00;8.35;;;;;;;;;;5063019;28;20226;-96
2021/11/30 05:13:50;;;;;;;63.38;7.90;;;;;;;;;;5063211;28;20219;-95
2021/11/30 05:16:17;;;;;;;63.60;8.30;;;;;;;;;;5062849;28;20202;-96
2021/11/30 05:18:43;;;;;;;63.45;8.40;;;;;;;;;;5061978;28;20246;-96
2021/11/30 05:21:10;;;;;;;63.78;8.35;;;;;;;;;;5065866;28;20266;-96
2021/11/30 05:23:38;;;;;;;65.00;8.90;;;;;;;;;;5064815;28;20208;-96
2021/11/30 05:26:05;;;;;;;64.95;8.40;;;;;;;;;;5064724;28;20187;-96
2021/11/30 05:28:35;;;;;;;63.80;8.40;;;;;;;;;;5064193;28;20198;-95
2021/11/30 05:31:02;;;;;;;65.78;8.73;;;;;;;;;;5065539;28;20202;-95
2021/11/30 05:33:29;;;;;;;65.07;8.45;;;;;;;;;;5063140;28;20202;-95
2021/11/30 05:35:55;;;;;;;64.88;9.00;;;;;;;;;;5064538;28;20207;-96
2021/11/30 05:38:25;;;;;;;65.43;9.18;;;;;;;;;;5067151;28;20201;-96
2021/11/30 05:40:55;;;;;;;69.70;11.43;;;;;;;;;;5067479;28;20201;-96
2021/11/30 05:43:30;;;;;;;65.80;9.30;;;;;;;;;;5068824;28;20189;-96
2021/11/30 05:45:58;;;;;;;65.32;9.63;;;;;;;;;;5064800;28;20284;-96
2021/11/30 05:48:32;;;;;;;66.80;9.38;;;;;;;;;;5062657;28;20202;-96
2021/11/30 05:50:59;;;;;;;67.43;9.63;;;;;;;;;;5062706;28;20388;-96
2021/11/30 05:53:26;;;;;;;66.45;9.48;;;;;;;;;;5063071;28;20191;-96
2021/11/30 05:55:54;;;;;;;66.55;9.23;;;;;;;;;;5066623;28;20713;-95
2021/11/30 05:58:25;;;;;;;65.25;9.07;;;;;;;;;;5062298;28;20214;-95
2021/11/30 06:00:59;;;;;;;67.32;10.32;;;;;;;;;;5066086;28;20290;-96
2021/11/30 06:03:31;;;;;;;69.23;10.60;;;;;;;;;;5070258;23;20713;-96
2021/11/30 06:05:58;;;;;;;71.10;8.65;;;;;;;;;;5066976;28;20447;-95
2021/11/30 06:08:25;;;;;;;65.80;9.02;;;;;;;;;;5062748;28;20266;-96
2021/11/30 06:10:52;;;;;;;66.95;10.20;;;;;;;;;;5064165;28;20226;-96
2021/11/30 06:13:23;;;;;;;69.53;10.02;;;;;;;;;;5067886;28;20198;-96
2021/11/30 06:15:51;;;;;;;67.32;9.50;;;;;;;;;;5047564;28;20230;-96
2021/11/30 06:18:18;;;;;;;65.88;9.05;;;;;;;;;;5066153;28;20206;-95
2021/11/30 06:20:57;;;;;;;65.28;9.20;;;;;;;;;;5049672;28;20255;-96
2021/11/30 06:23:24;;;;;;;66.28;9.55;;;;;;;;;;5065763;28;20198;-96
2021/11/30 06:26:04;;;;;;;65.40;9.60;;;;;;;;;;5064522;28;20213;-96
2021/11/30 06:28:31;;;;;;;68.13;10.10;;;;;;;;;;5063614;28;20208;-94
2021/11/30 06:31:02;;;;;;;69.15;10.60;;;;;;;;;;5065712;28;20227;-96
2021/11/30 06:33:29;;;;;;;66.45;10.73;;;;;;;;;;5066184;28;20222;-96
2021/11/30 06:36:01;;;;;;;67.93;11.25;;;;;;;;;;5065255;28;20230;-96
2021/11/30 06:38:29;;;;;;;68.97;11.70;;;;;;;;;;5065536;28;20194;-95
2021/11/30 06:40:56;;;;;;;69.40;11.80;;;;;;;;;;5063630;28;20265;-96
2021/11/30 06:43:23;;;;;;;68.50;10.45;;;;;;;;;;5064770;28;20202;-96
2021/11/30 06:45:53;;;;;;;71.63;11.25;;;;;;;;;;5067998;28;20187;-96
2021/11/30 06:48:22;;;;;;;68.22;11.27;;;;;;;;;;5067746;28;20289;-96
2021/11/30 06:50:51;;;;;;;69.00;10.93;;;;;;;;;;5064077;28;20273;-96
2021/11/30 06:53:33;;;;;;;67.65;11.00;;;;;;;;;;5064822;28;20191;-96
2021/11/30 06:56:00;;;;;;;67.35;10.43;;;;;;;;;;5065550;28;20230;-96
2021/11/30 06:58:28;;;;;;;69.53;10.88;;;;;;;;;;5063992;28;20178;-96
2021/11/30 07:00:55;;;;;;;70.63;11.02;;;;;;;;;;5064033;28;20201;-95
2021/11/30 07:03:23;;;;;;;71.38;11.90;;;;;;;;;;5066462;28;20291;-96
2021/11/30 07:08:51;;;;;;;72.10;13.18;;;;;;;;;;5134881;28;20186;-96
2021/11/30 07:11:24;;;;;;;70.40;12.85;;;;;;;;;;5142594;28;20238;-96
2021/11/30 07:14:01;;;;;;;73.13;12.70;;;;;;;;;;5136176;28;20179;-96
2021/11/30 07:16:28;;;;;;;73.72;12.88;;;;;;;;;;5133026;28;20454;-96
2021/11/30 07:18:55;;;;;;;71.25;13.38;;;;;;;;;;5133541;27;20195;-96
2021/11/30 07:21:31;;;;;;;72.07;13.43;;;;;;;;;;5144483;27;20203;-96
2021/11/30 07:24:11;;;;;;;74.00;13.60;;;;;;;;;;5137952;27;20263;-96
2021/11/30 07:26:39;;;;;;;72.15;13.13;;;;;;;;;;5144040;27;20177;-96
2021/11/30 07:29:06;;;;;;;69.57;11.68;;;;;;;;;;5143400;27;20224;-96
2021/11/30 07:31:44;;;;;;;71.73;12.83;;;;;;;;;;5149951;27;20207;-96
2021/11/30 07:34:21;;;;;;;69.90;12.90;;;;;;;;;;5119869;27;19907;-96
2021/11/30 07:36:49;;;;;;;69.80;12.57;;;;;;;;;;5136529;27;20200;-96
2021/11/30 07:39:26;;;;;;;68.63;12.07;;;;;;;;;;5189030;22;20240;-96
2021/11/30 07:41:53;;;;;;;74.20;13.90;;;;;;;;;;5168196;23;20224;-96
2021/11/30 07:44:23;;;;;;;73.07;14.60;;;;;;;;;;5166417;22;20422;-96
2021/11/30 07:46:50;;;;;;;72.10;13.63;;;;;;;;;;5030489;28;20227;-96
2021/11/30 07:49:19;;;;;;;70.97;12.67;;;;;;;;;;5109246;23;20469;-96
2021/11/30 07:51:57;;;;;;;69.03;12.53;;;;;;;;;;5119108;22;20444;-96
2021/11/30 07:54:31;;;;;;;72.80;13.73;;;;;;;;;;5089917;28;20473;-96
2021/11/30 07:56:58;;;;;;;71.30;13.10;;;;;;;;;;5089942;28;20436;-96
2021/11/30 07:59:24;;;;;;;73.80;13.57;;;;;;;;;;5075922;28;21178;-95
2021/11/30 08:02:02;;;;;;;73.43;13.88;;;;;;;;;;5089584;28;20226;-96
2021/11/30 08:04:53;;;;;;;75.50;15.00;;;;;;;;;;5094319;28;20612;-96
2021/11/30 08:07:29;;;;;;;76.00;15.02;;;;;;;;;;5091861;28;20437;-96
2021/11/30 08:10:01;;;;;;;72.60;13.13;;;;;;;;;;5093601;28;20258;-96
2021/11/30 08:12:28;;;;;;;70.70;13.23;;;;;;;;;;5092618;28;20449;-96
2021/11/30 08:15:04;;;;;;;70.17;12.77;;;;;;;;;;5087191;28;20499;-96
2021/11/30 08:17:31;;;;;;;70.77;13.70;;;;;;;;;;5087911;28;20441;-96
2021/11/30 08:20:01;;;;;;;74.23;14.60;;;;;;;;;;5088987;28;20445;-96
2021/11/30 08:22:28;;;;;;;71.40;13.20;;;;;;;;;;5087871;28;20548;-96
2021/11/30 08:24:58;;;;;;;75.38;14.15;;;;;;;;;;5087751;28;21054;-96
2021/11/30 08:30:14;;;;;;;69.70;13.70;;;;;;;;;;5087736;28;20237;-96
2021/11/30 08:35:25;;;;;;;72.70;14.00;;;;;;;;;;5087248;28;20524;-95
2021/11/30 08:38:04;;;;;;;71.20;13.67;;;;;;;;;;5087599;28;20459;-96
2021/11/30 08:40:32;;;;;;;73.93;14.60;;;;;;;;;;5069402;28;20434;-95
2021/11/30 08:43:05;;;;;;;71.30;13.70;;;;;;;;;;5088647;28;20273;-96
2021/11/30 08:45:40;;;;;;;71.70;12.90;;;;;;;;;;5084644;28;20440;-96
2021/11/30 08:48:09;;;;;;;69.60;13.30;;;;;;;;;;5093737;28;20455;-96
2021/11/30 08:53:41;;;;;;;74.97;14.70;;;;;;;;;;5081000;28;20536;-96
2021/11/30 08:58:55;;;;;;;70.73;13.40;;;;;;;;;;5255110;22;20461;-95
2021/11/30 09:02:00;;;;;;;75.43;14.97;;;;;;;;;;5178924;22;20474;-96
2021/11/30 09:07:09;;;;;;;75.27;14.83;;;;;;;;;;5063459;22;20492;-95
2021/11/30 09:09:36;;;;;;;71.90;14.67;;;;;;;;;;5019016;28;20438;-96
2021/11/30 09:12:03;;;;;;;77.47;16.30;;;;;;;;;;5013464;28;20552;-96
2021/11/30 09:17:30;;;;;;;71.47;14.33;;;;;;;;;;5016556;28;20464;-95
2021/11/30 09:20:04;;;;;;;74.83;15.63;;;;;;;;;;5008919;28;20690;-95
2021/11/30 09:22:31;;;;;;;;;;;;;;;;;;5006405;28;20309;-96
2021/11/30 09:24:58;;;;;;;72.00;14.67;;;;;;;;;;5002984;28;20205;-94
2021/11/30 09:27:25;;;;;;;71.80;14.90;;;;;;;;;;5006061;28;20931;-95
2021/11/30 09:29:52;;;;;;;;;;;;;;;;;;5006000;28;20293;-94
2021/11/30 09:32:20;;;;;;;;;;;;;;;;;;5002084;28;19937;-96
2021/11/30 09:34:46;;;;;;;;;;;;;;;;;;5001695;28;19932;-94
2021/11/30 09:37:15;;;;;;;69.60;12.70;;;;;;;;;;4999072;28;19941;-95
2021/11/30 09:39:41;;;;;;;;;;;;;;;;;;5003296;28;20632;-95
2021/11/30 09:42:08;;;;;;;;;;;;;;;;;;5006045;28;19922;-94
2021/11/30 09:44:34;;;;;;;73.10;14.70;;;;;;;;;;5007777;28;19994;-95
2021/11/30 09:47:01;;;;;;;69.03;13.27;;;;;;;;;;5006292;28;20459;-95
2021/11/30 09:49:28;;;;;;;69.25;12.25;;;;;;;;;;5008753;28;20449;-94
2021/11/30 09:51:55;;;;;;;70.57;13.50;;;;;;;;;;5008306;28;20292;-96
2021/11/30 09:54:23;;;;;;;71.53;13.87;;;;;;;;;;5009768;28;20436;-93
2021/11/30 09:56:50;;;;;;;72.03;13.67;;;;;;;;;;5012266;28;20498;-96
2021/11/30 09:59:17;;;;;;;72.00;13.87;;;;;;;;;;5010050;28;20289;-96
2021/11/30 10:01:43;;;;;;;71.70;13.97;;;;;;;;;;5012412;28;20535;-95
2021/11/30 10:04:10;;;;;;;77.33;14.60;;;;;;;;;;5014332;28;20432;-94
2021/11/30 10:06:38;;;;;;;71.05;14.20;;;;;;;;;;5020601;28;20566;-95
2021/11/30 10:09:14;;;;;;;69.47;13.13;;;;;;;;;;5041655;28;20519;-93
2021/11/30 10:11:44;;;;;;;70.22;12.45;;;;;;;;;;5043140;28;20434;-95
2021/11/30 10:14:12;;;;;;;74.80;14.73;;;;;;;;;;5043203;28;20192;-94
2021/11/30 10:19:27;;;;;;;74.17;13.67;;;;;;;;;;5041037;28;20511;-95
2021/11/30 10:21:57;;;;;;;76.60;14.77;;;;;;;;;;5043730;28;20458;-96
2021/11/30 10:24:23;;;;;;;70.70;13.77;;;;;;;;;;5039453;28;20439;-93
2021/11/30 10:26:55;;;;;;;68.50;12.60;;;;;;;;;;5038491;28;20482;-95
2021/11/30 10:29:21;;;;;;;76.47;14.00;;;;;;;;;;5032634;28;20457;-94
2021/11/30 10:31:49;;;;;;;71.35;13.60;;;;;;;;;;5039793;28;20447;-94
2021/11/30 10:34:17;;;;;;;68.73;12.30;;;;;;;;;;5039165;28;20676;-92
2021/11/30 10:36:44;;;;;;;79.13;13.93;;;;;;;;;;5038360;28;20464;-94
2021/11/30 10:39:16;;;;;;;73.90;14.40;;;;;;;;;;5039436;28;20444;-95
2021/11/30 10:41:42;;;;;;;70.23;13.37;;;;;;;;;;5038252;28;20457;-95
2021/11/30 10:44:10;;;;;;;75.00;13.97;;;;;;;;;;5038191;28;20503;-96
2021/11/30 10:46:38;;;;;;;69.20;12.93;;;;;;;;;;5037179;28;20461;-93
2021/11/30 10:49:06;;;;;;;71.10;13.63;;;;;;;;;;5038235;28;20466;-96
2021/11/30 10:51:41;;;;;;;73.67;13.43;;;;;;;;;;5036204;28;20544;-95
2021/11/30 10:54:08;;;;;;;75.05;14.77;;;;;;;;;;5041635;28;20451;-92
2021/11/30 10:56:35;;;;;;;73.70;14.20;;;;;;;;;;5042600;28;20224;-95
2021/11/30 10:59:01;;;;;;;74.90;15.10;;;;;;;;;;5045359;28;20434;-95
2021/11/30 11:01:30;;;;;;;72.77;13.60;;;;;;;;;;5029857;28;20523;-95
2021/11/30 11:04:04;;;;;;;77.40;15.67;;;;;;;;;;5048420;28;20441;-96
2021/11/30 11:06:31;;;;;;;;;;;;;;;;;;5047099;28;20461;-94
2021/11/30 11:09:00;;;;;;;;;;;;;;;;;;5043903;28;19961;-93
2021/11/30 11:11:41;;;;;;;73.63;15.27;;;;;;;;;;5048714;28;20167;-96
2021/11/30 11:14:07;;;;;;;;;;;;;;;;;;5049611;28;20052;-96
2021/11/30 11:16:35;;;;;;;;;;;;;;;;;;5048488;28;19971;-96
2021/11/30 11:19:02;;;;;;;;;;;;;;;;;;5047223;28;19936;-96
2021/11/30 11:21:29;;;;;;;;;;;;;;;;;;5046673;28;20552;-94
2021/11/30 11:23:55;;;;;;;;;;;;;;;;;;5044801;28;20828;-94
2021/11/30 11:26:25;;;;;;;69.37;12.23;;;;;;;;;;5042612;28;19933;-95
2021/11/30 11:28:52;;;;;;;;;;;;;;;;;;5043156;28;20293;-96
2021/11/30 11:31:18;;;;;;;;;;;;;;;;;;5043231;28;19936;-93
2021/11/30 11:33:46;;;;;;;;;;;;;;;;;;5045516;28;20456;-96
2021/11/30 11:36:12;;;;;;;;;;;;;;;;;;5046038;28;20641;-95
2021/11/30 11:38:39;;;;;;;;;;;;;;;;;;5043662;28;19931;-95
2021/11/30 11:41:06;;;;;;;;;;;;;;;;;;5045381;28;19921;-95
2021/11/30 11:43:32;;;;;;;;;;;;;;;;;;5043981;28;19952;-96
2021/11/30 11:46:02;;;;;;;;;;;;;;;;;;5043775;28;19947;-93
2021/11/30 11:48:28;;;;;;;;;;;;;;;;;;5046066;28;19984;-93
2021/11/30 11:50:55;;;;;;;;;;;;;;;;;;5045471;28;19943;-96
2021/11/30 11:53:21;;;;;;;;;;;;;;;;;;5045145;28;19979;-96
2021/11/30 11:55:48;;;;;;;;;;;;;;;;;;5047234;28;19948;-95
2021/11/30 11:58:17;;;;;;;;;;;;;;;;;;5045219;28;19933;-96
2021/11/30 12:00:43;;;;;;;;;;;;;;;;;;5044446;28;19988;-96
2021/11/30 12:03:10;;;;;;;;;;;;;;;;;;5047626;28;19928;-96
2021/11/30 12:05:36;;;;;;;;;;;;;;;;;;5049185;28;19947;-96
2021/11/30 12:08:05;;;;;;;;;;;;;;;;;;5047609;28;19928;-96
2021/11/30 12:10:32;;;;;;;;;;;;;;;;;;5052075;28;19931;-96
2021/11/30 12:12:59;;;;;;;;;;;;;;;;;;5052059;28;19916;-96
2021/11/30 12:15:26;;;;;;;;;;;;;;;;;;5034639;28;19928;-96
2021/11/30 12:17:55;;;;;;;;;;;;;;;;;;5048291;28;19936;-96
2021/11/30 12:20:22;;;;;;;;;;;;;;;;;;5046682;28;19936;-96
2021/11/30 12:22:50;;;;;;;;;;;;;;;;;;5053699;28;19904;-96
2021/11/30 12:25:38;;;;;;;80.63;17.80;;;;;;;;;;5049066;28;20184;-96
2021/11/30 12:28:11;;;;;;;73.10;14.20;;;;;;;;;;5030636;28;20899;-96
2021/11/30 12:30:41;;;;;;;71.70;14.17;;;;;;;;;;5045056;28;20478;-96
2021/11/30 12:33:08;;;;;;;;;;;;;;;;;;5042602;28;20442;-94
2021/11/30 12:35:53;;;;;;;73.07;13.77;;;;;;;;;;5038951;28;20048;-92
2021/11/30 12:38:32;;;;;;;75.80;13.80;;;;;;;;;;5040602;28;20299;-94
2021/11/30 12:41:01;;;;;;;69.27;13.73;;;;;;;;;;5041503;28;20450;-95
2021/11/30 12:43:32;;;;;;;70.47;13.63;;;;;;;;;;5046512;28;20649;-93
2021/11/30 12:46:02;;;;;;;70.03;12.85;;;;;;;;;;5024284;28;20462;-92
2021/11/30 12:48:35;;;;;;;68.87;13.00;;;;;;;;;;5040219;28;20196;-93
2021/11/30 12:51:29;;;;;;;69.68;13.73;;;;;;;;;;5041897;28;20928;-96
2021/11/30 12:53:57;;;;;;;70.07;14.00;;;;;;;;;;5010677;28;20268;-96
2021/11/30 12:56:43;;;;;;;70.63;14.30;;;;;;;;;;5044240;28;21104;-96
2021/11/30 12:59:11;;;;;;;73.50;14.80;;;;;;;;;;5043168;28;20445;-95
2021/11/30 13:01:39;;;;;;;79.20;16.23;;;;;;;;;;5044202;28;20501;-96
2021/11/30 14:09:09;;;;;;;72.87;16.20;;;;;;;;;;5115990;27;2016374;-91
2021/11/30 14:11:39;;;;;;;70.93;14.15;;;;;;;;;;5160258;27;20206;-95
2021/11/30 14:14:06;;;;;;;72.73;14.20;;;;;;;;;;5154711;27;20196;-93
2021/11/30 14:16:46;;;;;;;71.00;14.30;;;;;;;;;;5161706;27;20476;-92
2021/11/30 14:19:12;;;;;;;;;;;;;;;;;;5160862;27;20448;-91
2021/11/30 14:21:39;;;;;;;71.60;14.70;;;;;;;;;;5161237;27;20180;-92
2021/11/30 14:24:08;;;;;;;75.60;16.10;;;;;;;;;;5158680;27;20202;-92
2021/11/30 14:26:35;;;;;;;74.47;15.07;;;;;;;;;;5162568;27;20185;-93
2021/11/30 14:29:04;;;;;;;74.00;15.05;;;;;;;;;;5160231;27;20434;-95
2021/11/30 14:31:45;;;;;;;72.00;14.60;;;;;;;;;;5161379;27;20212;-91
2021/11/30 14:34:15;;;;;;;80.25;16.65;;;;;;;;;;5157836;27;20430;-91
2021/11/30 14:36:41;;;;;;;84.40;17.60;;;;;;;;;;5159417;27;20463;-91
2021/11/30 14:39:23;;;;;;;84.80;18.40;;;;;;;;;;5159782;27;20408;-91
2021/11/30 14:41:50;;;;;;;76.70;17.53;;;;;;;;;;5158053;27;20832;-90
2021/11/30 14:44:28;;;;;;;77.57;16.17;;;;;;;;;;5156465;27;20426;-92
2021/11/30 14:46:55;;;;;;;79.80;18.50;;;;;;;;;;5159868;27;20999;-92
2021/11/30 14:49:21;;;;;;;76.47;17.83;;;;;;;;;;5159733;27;20199;-95
2021/11/30 15:00:30;;;;;;;76.50;16.40;;;;;;;;;;5442730;23;20242;-94
2021/11/30 15:08:51;;;;;;;76.80;17.67;;;;;;;;;;5279044;22;20249;-96
2021/11/30 15:11:25;;;;;;;80.60;18.85;;;;;;;;;;5032635;28;20185;-94
2021/11/30 15:13:54;;;;;;;83.45;20.05;;;;;;;;;;5030334;28;20818;-95
2021/11/30 15:16:28;;;;;;;84.88;20.45;;;;;;;;;;5031616;28;20574;-95
2021/11/30 15:19:05;;;;;;;82.87;18.43;;;;;;;;;;5030956;28;20272;-95
2021/11/30 15:21:32;;;;;;;81.33;18.77;;;;;;;;;;5030986;28;22002;-96
2021/11/30 15:23:59;;;;;;;80.60;19.70;;;;;;;;;;5030867;28;20438;-96
2021/11/30 15:26:26;;;;;;;77.50;17.92;;;;;;;;;;5030452;28;20258;-94
2021/11/30 15:28:54;;;;;;;78.00;18.73;;;;;;;;;;5031999;28;20191;-95
2021/11/30 15:31:21;;;;;;;76.28;17.88;;;;;;;;;;5031277;28;20203;-96
2021/11/30 15:33:50;;;;;;;78.60;18.65;;;;;;;;;;5037155;28;20193;-96
2021/11/30 15:36:17;;;;;;;77.47;18.50;;;;;;;;;;5031929;28;21563;-96
2021/11/30 15:38:44;;;;;;;78.90;19.80;;;;;;;;;;5031893;28;20473;-95
2021/11/30 15:41:10;;;;;;;76.43;17.92;;;;;;;;;;5030070;28;20190;-92
2021/11/30 15:43:37;;;;;;;78.40;18.30;;;;;;;;;;5029198;28;20198;-93
2021/11/30 15:46:05;;;;;;;81.50;17.17;;;;;;;;;;5029482;28;21496;-94
2021/11/30 15:48:31;;;;;;;73.22;16.35;;;;;;;;;;5030102;28;20200;-93
2021/11/30 15:51:00;;;;;;;78.30;17.88;;;;;;;;;;5030041;28;20212;-93
2021/11/30 15:53:27;;;;;;;72.28;16.02;;;;;;;;;;5029477;28;20204;-92
2021/11/30 15:58:38;;;;;;;76.88;17.65;;;;;;;;;;5027516;28;20308;-93
2021/11/30 16:01:06;;;;;;;77.25;17.23;;;;;;;;;;5029372;28;20189;-92
2021/11/30 16:06:20;;;;;;;75.75;17.35;;;;;;;;;;5102285;28;20215;-96
2021/11/30 16:13:57;;;;;;;77.40;19.07;;;;;;;;;;5563445;23;20270;-95
2021/11/30 16:16:26;;;;;;;78.97;19.27;;;;;;;;;;5041683;28;20438;-95
2021/11/30 16:18:53;;;;;;;80.97;17.63;;;;;;;;;;5038869;28;20487;-94
2021/11/30 16:21:20;;;;;;;74.70;17.90;;;;;;;;;;5038733;28;20587;-94
2021/11/30 16:23:46;;;;;;;75.88;16.70;;;;;;;;;;5040597;28;20432;-94
2021/11/30 16:26:19;;;;;;;78.13;17.73;;;;;;;;;;5051726;28;20322;-96
2021/11/30 16:28:45;;;;;;;77.57;17.67;;;;;;;;;;5052517;28;20908;-96
2021/11/30 16:31:12;;;;;;;82.60;18.80;;;;;;;;;;5045012;28;20201;-92
2021/11/30 16:33:40;;;;;;;81.80;20.40;;;;;;;;;;5045959;28;20485;-92
2021/11/30 16:36:08;;;;;;;80.90;19.80;;;;;;;;;;5039114;28;20204;-92
2021/11/30 16:38:35;;;;;;;83.30;19.00;;;;;;;;;;5040776;28;20842;-94
2021/11/30 16:41:02;;;;;;;81.22;20.17;;;;;;;;;;5040253;28;20195;-94
2021/11/30 16:43:28;;;;;;;80.72;20.33;;;;;;;;;;5040052;28;20208;-96
2021/11/30 16:45:55;;;;;;;79.57;20.10;;;;;;;;;;5039717;28;20218;-93
2021/11/30 16:48:22;;;;;;;80.10;19.87;;;;;;;;;;5041196;28;20450;-96
2021/11/30 16:50:50;;;;;;;82.45;20.65;;;;;;;;;;5041797;28;20446;-94
2021/11/30 16:53:16;;;;;;;87.65;22.17;;;;;;;;;;5043913;28;20233;-96
2021/11/30 16:55:43;;;;;;;83.28;20.27;;;;;;;;;;5029977;28;20193;-96